AAL1424 MZBZ-KDFW
Flight info
| Callsign | AAL1424 |
|---|---|
| Flight time | N/A |
| Altitude | 34000 |
| Route | LITR1D LITRA UR899 CTM UJ26 MID UL208 DUTNA L208 PEGLG SHLLL CRIED BEREE3 |
| Aircraft | B738/M-VGDW/C |
Departure
| Time | 2026-04-28 04:53 |
|---|---|
| Airport | Philip S. W. Goldson International Airport (MZBZ) |
Arrival
| Time | N/A |
|---|---|
| Airport | Dallas Fort Worth International Airport (KDFW) |
| Time | Latitude | Longitude | Altitude | Speed | Heading |
|---|---|---|---|---|---|
| 2026-04-28 04:42 | 17.53688 | -88.30849 | 26 ft | 0 kts | 166° |
| 2026-04-28 04:45 | 17.53691 | -88.30850 | 26 ft | 2 kts | 166° |
| 2026-04-28 04:46 | 17.53706 | -88.30854 | 26 ft | 2 kts | 173° |
| 2026-04-28 04:46 | 17.53721 | -88.30853 | 26 ft | 2 kts | 197° |
| 2026-04-28 04:46 | 17.53734 | -88.30846 | 26 ft | 2 kts | 217° |
| 2026-04-28 04:46 | 17.53745 | -88.30835 | 26 ft | 2 kts | 236° |
| 2026-04-28 04:47 | 17.53751 | -88.30822 | 26 ft | 0 kts | 254° |
| 2026-04-28 04:47 | 17.53752 | -88.30815 | 26 ft | 0 kts | 257° |
| 2026-04-28 04:49 | 17.53746 | -88.30844 | 26 ft | 8 kts | 256° |
| 2026-04-28 04:49 | 17.53725 | -88.30938 | 26 ft | 16 kts | 257° |
| 2026-04-28 04:49 | 17.53696 | -88.31069 | 26 ft | 19 kts | 257° |
| 2026-04-28 04:50 | 17.53665 | -88.31209 | 26 ft | 19 kts | 257° |
| 2026-04-28 04:50 | 17.53635 | -88.31345 | 26 ft | 18 kts | 257° |
| 2026-04-28 04:50 | 17.53609 | -88.31465 | 27 ft | 16 kts | 257° |
| 2026-04-28 04:50 | 17.53583 | -88.31581 | 27 ft | 16 kts | 257° |
| 2026-04-28 04:51 | 17.53559 | -88.31692 | 28 ft | 8 kts | 257° |
| 2026-04-28 04:51 | 17.53553 | -88.31735 | 27 ft | 6 kts | 278° |
| 2026-04-28 04:51 | 17.53591 | -88.31773 | 27 ft | 9 kts | 346° |
| 2026-04-28 04:51 | 17.53619 | -88.31780 | 27 ft | 0 kts | 348° |
| 2026-04-28 04:52 | 17.53620 | -88.31780 | 26 ft | 1 kts | 348° |
| 2026-04-28 04:52 | 17.53667 | -88.31790 | 26 ft | 9 kts | 353° |
| 2026-04-28 04:52 | 17.53704 | -88.31753 | 26 ft | 1 kts | 77° |
| 2026-04-28 04:52 | 17.53769 | -88.31462 | 26 ft | 82 kts | 77° |
| 2026-04-28 04:53 | 17.53953 | -88.30624 | 26 ft | 151 kts | 77° |
| 2026-04-28 04:53 | 17.54217 | -88.29408 | 343 ft | 181 kts | 77° |
| 2026-04-28 04:53 | 17.54471 | -88.28152 | 1183 ft | 181 kts | 78° |
| 2026-04-28 04:53 | 17.54716 | -88.26833 | 1895 ft | 188 kts | 77° |
| 2026-04-28 04:54 | 17.55018 | -88.25436 | 2377 ft | 207 kts | 76° |
| 2026-04-28 04:54 | 17.55506 | -88.23949 | 2754 ft | 231 kts | 57° |
| 2026-04-28 04:54 | 17.56734 | -88.22778 | 3237 ft | 252 kts | 26° |
| 2026-04-28 04:54 | 17.58457 | -88.22367 | 3916 ft | 265 kts | 0° |
| 2026-04-28 04:55 | 17.60285 | -88.22559 | 4750 ft | 272 kts | 349° |
| 2026-04-28 04:55 | 17.62132 | -88.23006 | 5609 ft | 277 kts | 348° |
| 2026-04-28 04:55 | 17.64005 | -88.23465 | 6471 ft | 281 kts | 348° |
| 2026-04-28 04:55 | 17.65906 | -88.23930 | 7306 ft | 284 kts | 348° |
| 2026-04-28 04:56 | 17.67818 | -88.24398 | 8116 ft | 288 kts | 348° |
| 2026-04-28 04:56 | 17.69789 | -88.24881 | 8918 ft | 292 kts | 348° |
| 2026-04-28 04:56 | 17.71723 | -88.25355 | 9677 ft | 296 kts | 348° |
| 2026-04-28 04:56 | 17.73763 | -88.25854 | 10375 ft | 303 kts | 348° |
| 2026-04-28 04:57 | 17.75921 | -88.26387 | 10524 ft | 330 kts | 345° |
| 2026-04-28 04:57 | 17.78070 | -88.27438 | 10713 ft | 353 kts | 327° |
| 2026-04-28 04:57 | 17.80095 | -88.28912 | 11307 ft | 361 kts | 326° |
| 2026-04-28 04:57 | 17.82273 | -88.30258 | 11963 ft | 366 kts | 335° |
| 2026-04-28 04:58 | 17.84671 | -88.31170 | 12638 ft | 369 kts | 347° |
| 2026-04-28 04:58 | 17.87182 | -88.31617 | 13325 ft | 372 kts | 355° |
| 2026-04-28 04:58 | 17.89749 | -88.31813 | 13974 ft | 375 kts | 358° |
| 2026-04-28 04:58 | 17.92362 | -88.31919 | 14619 ft | 379 kts | 359° |
| 2026-04-28 04:59 | 17.95021 | -88.32002 | 15257 ft | 382 kts | 359° |
| 2026-04-28 04:59 | 17.97667 | -88.32080 | 15875 ft | 386 kts | 359° |
| 2026-04-28 04:59 | 18.00354 | -88.32159 | 16480 ft | 389 kts | 359° |
| 2026-04-28 04:59 | 18.03063 | -88.32237 | 17072 ft | 392 kts | 359° |
| 2026-04-28 05:00 | 18.05793 | -88.32316 | 17640 ft | 396 kts | 359° |
| 2026-04-28 05:00 | 18.08555 | -88.32396 | 18215 ft | 399 kts | 358° |
| 2026-04-28 05:00 | 18.11315 | -88.32475 | 18758 ft | 402 kts | 358° |
| 2026-04-28 05:00 | 18.14128 | -88.32552 | 19310 ft | 405 kts | 359° |
| 2026-04-28 05:01 | 18.16937 | -88.32616 | 19836 ft | 408 kts | 359° |
| 2026-04-28 05:01 | 18.19751 | -88.32671 | 20353 ft | 411 kts | 359° |
| 2026-04-28 05:01 | 18.22588 | -88.32714 | 20852 ft | 414 kts | 359° |
| 2026-04-28 05:01 | 18.25500 | -88.32740 | 21346 ft | 417 kts | 359° |
| 2026-04-28 05:02 | 18.28392 | -88.32765 | 21830 ft | 419 kts | 359° |
| 2026-04-28 05:02 | 18.31316 | -88.32797 | 22299 ft | 422 kts | 359° |
| 2026-04-28 05:02 | 18.34235 | -88.32835 | 22751 ft | 424 kts | 359° |
| 2026-04-28 05:02 | 18.37188 | -88.32884 | 23202 ft | 427 kts | 359° |
| 2026-04-28 05:03 | 18.40144 | -88.32993 | 23622 ft | 429 kts | 353° |
| 2026-04-28 05:03 | 18.43118 | -88.33427 | 24067 ft | 431 kts | 351° |
| 2026-04-28 05:03 | 18.46050 | -88.33902 | 24483 ft | 433 kts | 350° |
| 2026-04-28 05:03 | 18.49031 | -88.34482 | 24888 ft | 436 kts | 347° |
| 2026-04-28 05:04 | 18.51966 | -88.35242 | 25302 ft | 437 kts | 343° |
| 2026-04-28 05:04 | 18.54842 | -88.36192 | 25693 ft | 439 kts | 340° |
| 2026-04-28 05:04 | 18.57728 | -88.37337 | 26078 ft | 441 kts | 337° |
| 2026-04-28 05:04 | 18.60525 | -88.38639 | 26450 ft | 443 kts | 334° |
| 2026-04-28 05:05 | 18.63268 | -88.40047 | 26814 ft | 445 kts | 333° |
| 2026-04-28 05:05 | 18.66061 | -88.41519 | 27173 ft | 447 kts | 333° |
| 2026-04-28 05:05 | 18.68809 | -88.42981 | 27523 ft | 449 kts | 332° |
| 2026-04-28 05:05 | 18.71585 | -88.44462 | 27863 ft | 451 kts | 332° |
| 2026-04-28 05:06 | 18.74412 | -88.45973 | 28202 ft | 453 kts | 332° |
| 2026-04-28 05:06 | 18.77185 | -88.47458 | 28531 ft | 455 kts | 332° |
| 2026-04-28 05:06 | 18.80028 | -88.48982 | 28849 ft | 457 kts | 332° |
| 2026-04-28 05:06 | 18.82846 | -88.50494 | 29166 ft | 458 kts | 332° |
| 2026-04-28 05:07 | 18.85700 | -88.52026 | 29465 ft | 460 kts | 332° |
| 2026-04-28 05:07 | 18.88529 | -88.53545 | 29796 ft | 461 kts | 332° |
| 2026-04-28 05:07 | 18.91396 | -88.55087 | 30174 ft | 461 kts | 332° |
| 2026-04-28 05:07 | 18.94206 | -88.56598 | 30537 ft | 461 kts | 332° |
| 2026-04-28 05:08 | 18.97051 | -88.58129 | 30892 ft | 460 kts | 332° |
| 2026-04-28 05:08 | 18.99917 | -88.59672 | 31249 ft | 460 kts | 332° |
| 2026-04-28 05:08 | 19.02747 | -88.61196 | 31575 ft | 460 kts | 332° |
| 2026-04-28 05:08 | 19.05594 | -88.62731 | 31903 ft | 460 kts | 332° |
| 2026-04-28 05:09 | 19.08419 | -88.64254 | 32273 ft | 459 kts | 332° |
| 2026-04-28 05:09 | 19.11246 | -88.65778 | 32627 ft | 458 kts | 331° |
| 2026-04-28 05:09 | 19.14078 | -88.67306 | 32993 ft | 456 kts | 331° |
| 2026-04-28 05:09 | 19.16892 | -88.68825 | 33338 ft | 455 kts | 331° |
| 2026-04-28 05:10 | 19.19714 | -88.70349 | 33672 ft | 454 kts | 331° |
| 2026-04-28 05:10 | 19.22495 | -88.71852 | 33926 ft | 454 kts | 331° |
| 2026-04-28 05:10 | 19.25306 | -88.73372 | 33940 ft | 459 kts | 331° |
| 2026-04-28 05:11 | 19.30974 | -88.76447 | 33938 ft | 457 kts | 331° |
| 2026-04-28 05:11 | 19.36616 | -88.79508 | 33939 ft | 455 kts | 331° |
| 2026-04-28 05:12 | 19.42239 | -88.82558 | 33939 ft | 455 kts | 331° |
| 2026-04-28 05:12 | 19.47832 | -88.85592 | 33939 ft | 456 kts | 331° |
| 2026-04-28 05:13 | 19.53474 | -88.88653 | 33939 ft | 455 kts | 331° |
| 2026-04-28 05:13 | 19.59091 | -88.91702 | 33939 ft | 455 kts | 331° |
| 2026-04-28 05:14 | 19.64696 | -88.94746 | 33939 ft | 454 kts | 331° |
| 2026-04-28 05:14 | 19.70293 | -88.97788 | 33939 ft | 454 kts | 331° |
| 2026-04-28 05:15 | 19.75886 | -89.00832 | 33939 ft | 454 kts | 331° |
| 2026-04-28 05:15 | 19.81504 | -89.03896 | 33939 ft | 453 kts | 331° |
| 2026-04-28 05:16 | 19.87096 | -89.06949 | 33939 ft | 453 kts | 331° |
| 2026-04-28 05:16 | 19.92687 | -89.10001 | 33939 ft | 453 kts | 331° |
| 2026-04-28 05:17 | 20.01076 | -89.14581 | 33939 ft | 453 kts | 331° |
| 2026-04-28 05:17 | 20.06671 | -89.17638 | 33939 ft | 453 kts | 331° |
| 2026-04-28 05:18 | 20.12231 | -89.20678 | 33939 ft | 453 kts | 331° |
| 2026-04-28 05:18 | 20.17829 | -89.23740 | 33939 ft | 453 kts | 331° |
| 2026-04-28 05:19 | 20.23422 | -89.26808 | 33939 ft | 453 kts | 331° |
| 2026-04-28 05:19 | 20.29006 | -89.29878 | 33939 ft | 453 kts | 331° |
| 2026-04-28 05:20 | 20.34619 | -89.32963 | 33939 ft | 453 kts | 331° |
| 2026-04-28 05:20 | 20.40175 | -89.36017 | 33939 ft | 453 kts | 331° |
| 2026-04-28 05:21 | 20.45789 | -89.39105 | 33939 ft | 453 kts | 331° |
| 2026-04-28 05:21 | 20.51373 | -89.42177 | 33939 ft | 453 kts | 331° |
| 2026-04-28 05:22 | 20.56937 | -89.45242 | 33939 ft | 453 kts | 331° |
| 2026-04-28 05:22 | 20.62534 | -89.48331 | 33939 ft | 453 kts | 331° |
| 2026-04-28 05:23 | 20.68134 | -89.51421 | 34002 ft | 453 kts | 331° |
| 2026-04-28 05:23 | 20.73697 | -89.54493 | 34000 ft | 454 kts | 331° |
| 2026-04-28 05:24 | 20.79315 | -89.57596 | 33999 ft | 454 kts | 331° |
| 2026-04-28 05:24 | 20.84889 | -89.60677 | 33999 ft | 453 kts | 331° |
| 2026-04-28 05:25 | 20.90472 | -89.63764 | 34000 ft | 453 kts | 331° |
| 2026-04-28 05:25 | 20.96190 | -89.66686 | 34000 ft | 454 kts | 334° |
| 2026-04-28 05:26 | 21.01958 | -89.69352 | 33999 ft | 452 kts | 335° |
| 2026-04-28 05:26 | 21.07693 | -89.71989 | 33999 ft | 447 kts | 335° |
| 2026-04-28 05:27 | 21.13337 | -89.74583 | 33999 ft | 443 kts | 335° |
| 2026-04-28 05:27 | 21.19005 | -89.77190 | 34000 ft | 443 kts | 335° |
| 2026-04-28 05:28 | 21.24628 | -89.79778 | 34000 ft | 444 kts | 335° |
| 2026-04-28 05:28 | 21.30296 | -89.82389 | 33999 ft | 444 kts | 335° |
| 2026-04-28 05:29 | 21.35978 | -89.85010 | 33999 ft | 444 kts | 335° |
| 2026-04-28 05:29 | 21.41635 | -89.87620 | 33999 ft | 444 kts | 335° |
| 2026-04-28 05:30 | 21.47261 | -89.90218 | 34000 ft | 444 kts | 335° |
| 2026-04-28 05:30 | 21.52918 | -89.92830 | 33999 ft | 444 kts | 335° |
| 2026-04-28 05:31 | 21.58575 | -89.95444 | 34000 ft | 444 kts | 335° |
| 2026-04-28 05:31 | 21.64084 | -89.97991 | 34000 ft | 444 kts | 335° |
| 2026-04-28 05:32 | 21.69799 | -90.00635 | 33999 ft | 444 kts | 335° |
| 2026-04-28 05:32 | 21.75440 | -90.03255 | 34000 ft | 444 kts | 335° |
| 2026-04-28 05:33 | 21.81098 | -90.05884 | 34000 ft | 444 kts | 335° |
| 2026-04-28 05:33 | 21.86770 | -90.08521 | 34000 ft | 444 kts | 335° |
| 2026-04-28 05:34 | 21.92399 | -90.11137 | 34000 ft | 444 kts | 335° |
| 2026-04-28 05:34 | 21.98062 | -90.13772 | 33999 ft | 444 kts | 335° |
| 2026-04-28 05:35 | 22.03724 | -90.16408 | 34000 ft | 444 kts | 335° |
| 2026-04-28 05:35 | 22.09385 | -90.19045 | 34000 ft | 444 kts | 335° |
| 2026-04-28 05:36 | 22.15007 | -90.21666 | 34000 ft | 444 kts | 335° |
| 2026-04-28 05:36 | 22.20685 | -90.24316 | 34000 ft | 444 kts | 335° |
| 2026-04-28 05:37 | 22.26331 | -90.26953 | 34000 ft | 444 kts | 335° |
| 2026-04-28 05:37 | 22.31966 | -90.29587 | 34000 ft | 444 kts | 335° |
| 2026-04-28 05:38 | 22.37627 | -90.32239 | 34000 ft | 444 kts | 335° |
| 2026-04-28 05:38 | 22.43275 | -90.34889 | 33999 ft | 444 kts | 335° |
| 2026-04-28 05:39 | 22.48919 | -90.37536 | 34000 ft | 444 kts | 335° |
| 2026-04-28 05:39 | 22.54568 | -90.40186 | 34000 ft | 444 kts | 335° |
| 2026-04-28 05:40 | 22.60188 | -90.42830 | 33999 ft | 444 kts | 335° |
| 2026-04-28 05:40 | 22.65865 | -90.45502 | 34000 ft | 444 kts | 335° |
| 2026-04-28 05:41 | 22.71485 | -90.48146 | 34000 ft | 444 kts | 335° |
| 2026-04-28 05:41 | 22.77139 | -90.50809 | 33999 ft | 444 kts | 335° |
| 2026-04-28 05:42 | 22.82799 | -90.53477 | 33999 ft | 444 kts | 335° |
| 2026-04-28 05:42 | 22.88440 | -90.56138 | 34000 ft | 444 kts | 335° |
| 2026-04-28 05:43 | 22.94063 | -90.58792 | 33999 ft | 440 kts | 334° |
| 2026-04-28 05:43 | 22.99644 | -90.61428 | 33999 ft | 434 kts | 333° |
| 2026-04-28 05:44 | 23.05130 | -90.64022 | 33999 ft | 429 kts | 333° |
| 2026-04-28 05:44 | 23.10574 | -90.66602 | 34000 ft | 430 kts | 333° |
| 2026-04-28 05:45 | 23.16079 | -90.69212 | 34000 ft | 431 kts | 333° |
| 2026-04-28 05:45 | 23.21536 | -90.71802 | 33999 ft | 431 kts | 333° |
| 2026-04-28 05:46 | 23.27052 | -90.74420 | 33999 ft | 430 kts | 333° |
| 2026-04-28 05:46 | 23.32507 | -90.77016 | 34000 ft | 430 kts | 333° |
| 2026-04-28 05:47 | 23.37964 | -90.79623 | 33999 ft | 430 kts | 333° |
| 2026-04-28 05:47 | 23.43465 | -90.82248 | 34000 ft | 430 kts | 333° |
| 2026-04-28 05:48 | 23.48905 | -90.84843 | 33999 ft | 430 kts | 333° |
| 2026-04-28 05:48 | 23.54379 | -90.87453 | 34000 ft | 430 kts | 333° |
| 2026-04-28 05:49 | 23.59864 | -90.90072 | 34000 ft | 430 kts | 333° |
| 2026-04-28 05:49 | 23.65353 | -90.92693 | 34000 ft | 430 kts | 333° |
| 2026-04-28 05:50 | 23.70823 | -90.95308 | 34000 ft | 430 kts | 333° |
| 2026-04-28 05:50 | 23.76306 | -90.97932 | 33999 ft | 430 kts | 333° |
| 2026-04-28 05:51 | 23.81751 | -91.00539 | 34000 ft | 430 kts | 333° |
| 2026-04-28 05:51 | 23.87215 | -91.03158 | 34000 ft | 430 kts | 333° |
| 2026-04-28 05:52 | 23.92703 | -91.05791 | 34000 ft | 430 kts | 333° |
| 2026-04-28 05:52 | 23.98165 | -91.08413 | 34000 ft | 430 kts | 333° |
| 2026-04-28 05:53 | 24.03612 | -91.11031 | 34000 ft | 430 kts | 333° |
| 2026-04-28 05:53 | 24.09071 | -91.13657 | 34000 ft | 430 kts | 333° |
| 2026-04-28 05:54 | 24.14546 | -91.16293 | 34000 ft | 430 kts | 333° |
| 2026-04-28 05:54 | 24.19999 | -91.18922 | 34000 ft | 430 kts | 333° |
| 2026-04-28 05:55 | 24.25466 | -91.21559 | 34000 ft | 429 kts | 333° |
| 2026-04-28 05:55 | 24.30919 | -91.24198 | 34000 ft | 429 kts | 333° |
| 2026-04-28 05:56 | 24.36341 | -91.26834 | 34000 ft | 430 kts | 333° |
| 2026-04-28 05:56 | 24.41812 | -91.29490 | 34000 ft | 430 kts | 333° |
| 2026-04-28 05:57 | 24.47280 | -91.32142 | 33999 ft | 429 kts | 332° |
| 2026-04-28 05:57 | 24.52511 | -91.35156 | 34000 ft | 427 kts | 327° |
| 2026-04-28 05:58 | 24.57666 | -91.38419 | 33999 ft | 427 kts | 327° |
| 2026-04-28 05:58 | 24.62793 | -91.41690 | 33999 ft | 427 kts | 327° |
| 2026-04-28 05:59 | 24.67895 | -91.44956 | 33999 ft | 427 kts | 327° |
| 2026-04-28 05:59 | 24.73008 | -91.48237 | 33999 ft | 427 kts | 327° |
| 2026-04-28 06:00 | 24.78143 | -91.51537 | 33999 ft | 427 kts | 327° |
| 2026-04-28 06:00 | 24.83246 | -91.54820 | 33999 ft | 427 kts | 327° |
| 2026-04-28 06:01 | 24.88348 | -91.58107 | 33999 ft | 427 kts | 327° |
| 2026-04-28 06:01 | 24.93462 | -91.61404 | 33999 ft | 427 kts | 327° |
| 2026-04-28 06:02 | 24.98572 | -91.64703 | 34008 ft | 426 kts | 327° |
| 2026-04-28 06:02 | 25.03660 | -91.67991 | 34039 ft | 419 kts | 326° |
| 2026-04-28 06:03 | 25.08633 | -91.71208 | 34070 ft | 413 kts | 325° |
| 2026-04-28 06:03 | 25.13537 | -91.74385 | 34095 ft | 408 kts | 324° |
| 2026-04-28 06:04 | 25.18401 | -91.77541 | 34094 ft | 409 kts | 324° |
| 2026-04-28 06:04 | 25.23306 | -91.80724 | 34091 ft | 410 kts | 324° |
| 2026-04-28 06:05 | 25.28202 | -91.83903 | 34088 ft | 409 kts | 324° |
| 2026-04-28 06:05 | 25.33107 | -91.87091 | 34086 ft | 409 kts | 324° |
| 2026-04-28 06:06 | 25.37997 | -91.90272 | 34084 ft | 409 kts | 324° |
| 2026-04-28 06:06 | 25.42924 | -91.93480 | 34082 ft | 409 kts | 324° |
| 2026-04-28 06:07 | 25.47795 | -91.96654 | 34082 ft | 409 kts | 324° |
| 2026-04-28 06:07 | 25.52704 | -91.99857 | 34082 ft | 409 kts | 324° |
| 2026-04-28 06:08 | 25.57605 | -92.03056 | 34082 ft | 409 kts | 325° |
| 2026-04-28 06:08 | 25.62473 | -92.06239 | 34082 ft | 409 kts | 324° |
| 2026-04-28 06:09 | 25.67331 | -92.09417 | 34082 ft | 409 kts | 325° |
| 2026-04-28 06:09 | 25.72261 | -92.12645 | 34082 ft | 410 kts | 324° |
| 2026-04-28 06:10 | 25.77172 | -92.15864 | 34082 ft | 409 kts | 324° |
| 2026-04-28 06:10 | 25.82050 | -92.19064 | 34082 ft | 409 kts | 324° |
| 2026-04-28 06:11 | 25.86938 | -92.22275 | 34082 ft | 409 kts | 325° |
| 2026-04-28 06:11 | 25.91827 | -92.25488 | 34082 ft | 409 kts | 325° |
| 2026-04-28 06:12 | 25.96711 | -92.28702 | 34082 ft | 409 kts | 324° |
| 2026-04-28 06:12 | 26.01453 | -92.31826 | 34082 ft | 409 kts | 324° |